M I D A S
Marine Information and Data Acquisition System
Tripno 411 of the Zeeleeuw from 2003-01-08 07:41:15 to 2003-01-08 14:00:47
Back to CruiseResearch ActivitiesStationsMapUnderway DataData graphs

EquipmentUnitsComment
TimeDGPSUTC
LatitudeDGPSDM.mWGS84
LongitudeDGPSDM.mWGS84
HeadingGyrodeg 
SOGDGPSknotsSpeed over ground
COGDGPSdegCourse over ground
DepthEcho soundermeters200 kHz
Missing or incorrect values are displayed as -999
Navigation data collected by the RV Zeeleeuw from 2003-01-08 07:41:15 to 2003-01-08 14:00:47
Time Latitude Longitude Heading SOG COG Depth
2003-01-08 07:42:18 51°13.662 2°55.881 115.2 4.3 294.8 -999
2003-01-08 07:43:17 51°13.686 2°55.784 102.2 3.6 286.9 -999
2003-01-08 07:44:17 51°13.695 2°55.725 71.2 0.7 303 12.7
2003-01-08 07:45:15 51°13.711 2°55.723 13.5 1.7 353.7 11.3
2003-01-08 07:46:22 51°13.766 2°55.683 338.2 4.2 332.6 9.5
2003-01-08 07:47:21 51°13.84 2°55.629 339.2 5.6 337 10
2003-01-08 07:48:22 51°13.937 2°55.559 339.2 6.7 335.3 9.8
2003-01-08 07:49:21 51°14.044 2°55.483 338.7 7.4 336 10
2003-01-08 07:50:23 51°14.165 2°55.38 331.5 8.3 328.9 10
2003-01-08 07:51:23 51°14.273 2°55.234 316.3 8.7 313.5 10.1
2003-01-08 07:52:21 51°14.36 2°55.053 309.2 9.2 304.6 10.6
2003-01-08 07:53:21 51°14.478 2°54.825 325.3 12.3 317.6 10
2003-01-08 07:54:21 51°14.638 2°54.611 333.8 12.5 325.3 9.4
2003-01-08 07:55:19 51°14.81 2°54.447 335.3 12.5 328.2 9.4
2003-01-08 07:56:23 51°14.998 2°54.266 336 12.3 328.8 8.5
2003-01-08 07:57:23 51°15.174 2°54.093 335.2 12.5 327.2 9
2003-01-08 07:58:23 51°15.351 2°53.927 338.5 12.3 330.8 9.6
2003-01-08 07:59:23 51°15.529 2°53.763 338.5 12.4 330.5 10.3
2003-01-08 08:00:23 51°15.72 2°53.588 337.3 13.9 329.9 11
2003-01-08 08:01:23 51°15.924 2°53.4 337 14.3 330.1 11.6
2003-01-08 08:02:23 51°16.131 2°53.211 337.7 14.3 330.4 12
2003-01-08 08:03:23 51°16.338 2°53.024 337.7 14.3 330.3 12.1
2003-01-08 08:04:23 51°16.545 2°52.836 337.8 14.2 330.5 11.5
2003-01-08 08:05:23 51°16.75 2°52.653 337.8 14 330.9 9.4
2003-01-08 08:06:23 51°16.958 2°52.481 341.2 14.2 334 9.3
2003-01-08 08:07:23 51°17.169 2°52.32 341.7 14.1 334.2 9.8
2003-01-08 08:08:23 51°17.38 2°52.153 340.8 14.1 333.6 10.2
2003-01-08 08:09:23 51°17.591 2°51.988 341.3 14.1 333.7 10.1
2003-01-08 08:10:23 51°17.802 2°51.823 341.8 14.1 334.4 9.9
2003-01-08 08:11:23 51°18.013 2°51.657 340.8 14.2 333.4 10.3
2003-01-08 08:12:23 51°18.226 2°51.487 340.7 14.3 333.4 11.5
2003-01-08 08:13:23 51°18.438 2°51.314 340 14.3 333.1 13
2003-01-08 08:14:23 51°18.656 2°51.176 350.7 14 342.8 13.8
2003-01-08 08:15:23 51°18.881 2°51.084 355.3 13.9 347.5 14.4
2003-01-08 08:16:23 51°19.107 2°50.999 353.8 14 346 14.5
2003-01-08 08:17:23 51°19.334 2°50.903 346.7 14.2 340 14.1
2003-01-08 08:18:23 51°19.538 2°50.706 332.8 14.4 325.7 11.7
2003-01-08 08:19:23 51°19.74 2°50.495 334 14.6 326.5 12.1
2003-01-08 08:20:23 51°19.944 2°50.283 334.3 14.7 327.3 13.7
2003-01-08 08:21:23 51°20.15 2°50.073 334.2 14.7 326.8 16.7
2003-01-08 08:22:23 51°20.357 2°49.864 333.7 14.6 327.6 19.7
2003-01-08 08:23:27 51°20.573 2°49.642 334.3 14.4 327.5 22.2
2003-01-08 08:24:31 51°20.797 2°49.451 344.2 14.3 336.4 22.4
2003-01-08 08:25:31 51°21.019 2°49.318 350.8 14.2 343 21.2
2003-01-08 08:26:31 51°21.246 2°49.216 352.5 14.2 345 21.2
2003-01-08 08:27:31 51°21.478 2°49.146   14.2 352.4 21.1
2003-01-08 08:28:31 51°21.712 2°49.098 0.3 14.2 352.6 22.3
2003-01-08 08:29:33 51°21.956 2°49.049 1.7 14.3 354.2 22.8
2003-01-08 08:30:37 51°22.208 2°49.031 5.8 14.2 358.7 22.7
2003-01-08 08:31:37 51°22.443 2°49.016 5.5 14.2 357.7 19.2
2003-01-08 08:32:37 51°22.679 2°49.002 5.2 14.2 358 13.2
2003-01-08 08:33:37 51°22.914 2°48.988 3.5 14.1 357 16
2003-01-08 08:34:39 51°23.156 2°48.965 3.2 14 356.2 19.7
2003-01-08 08:35:43 51°23.404 2°48.939 4.7 14 357.1 18.8
2003-01-08 08:36:42 51°23.633 2°48.917 4.5 14 356.8 21.1
2003-01-08 08:37:41 51°23.861 2°48.894 3.5 13.9 356.1 20.2
2003-01-08 08:38:43 51°24.099 2°48.872 3.8 13.8 356.5 20.4
2003-01-08 08:39:47 51°24.343 2°48.833 1.5 13.9 353.5 19.7
2003-01-08 08:40:47 51°24.573 2°48.795 1.5 14 354 21.1
2003-01-08 08:41:47 51°24.806 2°48.755 2 14 354 21.4
2003-01-08 08:42:47 51°25.038 2°48.713 359 14 352.4 24.4
2003-01-08 08:43:47 51°25.269 2°48.661 358.5 14 351.9 26.7
2003-01-08 08:44:47 51°25.499 2°48.605 358 14.1 351.4 24.3
2003-01-08 08:45:47 51°25.73 2°48.551 359.3 14.1 351.6 22.7
2003-01-08 08:46:47 51°25.962 2°48.493 359.5 14.1 352.3 22.3
2003-01-08 08:47:47 51°26.195 2°48.442 359.5 14.2 352.6 20.4
2003-01-08 08:48:47 51°26.429 2°48.393 0.3 14.2 353.1 20.8
2003-01-08 08:49:47 51°26.664 2°48.343 0.5 14.3 352.9 21.7
2003-01-08 08:50:47 51°26.899 2°48.295   14.1 352.3 23
2003-01-08 08:51:47 51°27.129 2°48.198 349 14.3 342.2 25.5
2003-01-08 08:52:47 51°27.354 2°48.082 350.5 14.3 343.1 26.2
2003-01-08 08:53:47 51°27.582 2°47.966 350.8 14.3 343.2 25.6
2003-01-08 08:54:47 51°27.806 2°47.844 350.5 14.2 342.3 26.4
2003-01-08 08:55:47 51°28.031 2°47.723 349.7 14.2 341.7 29.3
2003-01-08 08:56:51 51°28.267 2°47.594 349.7 14.1 341.1 30.4
2003-01-08 08:57:55 51°28.506 2°47.469 351.7 14.1 342.3 28.1
2003-01-08 08:58:53 51°28.722 2°47.355 350.5 14.1 342 25.6
2003-01-08 08:59:59 51°28.972 2°47.226 349.2 14.3 342.4 25.5
2003-01-08 09:00:59 51°29.198 2°47.107 350.3 14.4 342.1 23.3
2003-01-08 09:01:59 51°29.425 2°46.992 350.5 14.3 343.1 22.5
2003-01-08 09:02:59 51°29.652 2°46.877 351.8 14.3 342.8 19.6
2003-01-08 09:03:59 51°29.877 2°46.757 350 14.3 342.3 19
2003-01-08 09:04:59 51°30.105 2°46.639 348.2 14.2 341.6 20.7
2003-01-08 09:05:59 51°30.331 2°46.52 349 14.3 340.7 21.8
2003-01-08 09:06:59 51°30.551 2°46.395 349.3 14.1 341 26.4
2003-01-08 09:07:59 51°30.771 2°46.275 350.5 14 342.4 27.7
2003-01-08 09:08:59 51°30.995 2°46.159 348.2 14 341.5 30.7
2003-01-08 09:09:59 51°31.215 2°46.041 348 14 339.5 33.1
2003-01-08 09:10:59 51°31.436 2°45.918 348.8 14 340.6 27.7
2003-01-08 09:11:59 51°31.654 2°45.795 348.7 13.9 340.5 29.6
2003-01-08 09:12:59 51°31.871 2°45.671 349.3 13.8 341.5 30.5
2003-01-08 09:13:59 51°32.091 2°45.551 350.3 14 341.7 30
2003-01-08 09:14:59 51°32.312 2°45.433 349.2 14 340.7 32.7
2003-01-08 09:15:59 51°32.535 2°45.312 350 14.2 341.6 33
2003-01-08 09:16:59 51°32.756 2°45.191 350.2 14 341.8 34.2
2003-01-08 09:17:59 51°32.977 2°45.069 351 14.1 342.6 28.7
2003-01-08 09:18:59 51°33.2 2°44.967 350.5 13.9 342.7 27.3
2003-01-08 09:19:59 51°33.424 2°44.858 352.2 14.1 343.6 21.7
2003-01-08 09:20:59 51°33.647 2°44.749 351 14 341.9 15.3
2003-01-08 09:21:59 51°33.87 2°44.635 351.3 14.2 342.2 16.8
2003-01-08 09:22:59 51°34.098 2°44.531 354.2 14.3 345.4 20.4
2003-01-08 09:23:59 51°34.325 2°44.426 352.5 14.1 343.9 22.3
2003-01-08 09:24:59 51°34.553 2°44.32 351.3 14.1 343.2 24
2003-01-08 09:26:03 51°34.789 2°44.204 351.2 13.8 343.4 30.3
2003-01-08 09:27:03 51°35.01 2°44.094 350.2 13.9 342.3 32.6
2003-01-08 09:28:03 51°35.233 2°43.989 351 13.9 342.7 34.2
2003-01-08 09:29:03 51°35.456 2°43.889 354.3 14 346.3 36.1
2003-01-08 09:30:03 51°35.678 2°43.784 352.7 13.8 343.8 36.8
2003-01-08 09:31:03 51°35.897 2°43.679 352.5 13.8 344.1 38.5
2003-01-08 09:32:07 51°36.135 2°43.572 352.7 13.8 344.8 39
2003-01-08 09:33:03 51°36.342 2°43.475 350.5 14 343.2 39.6
2003-01-08 09:34:07 51°36.579 2°43.36 351.2 13.9 343.4 37.4
2003-01-08 09:35:07 51°36.801 2°43.256 351.3 13.8 343.7 36.3
2003-01-08 09:36:07 51°37.022 2°43.154 352 13.8 344.5 36
2003-01-08 09:37:07 51°37.244 2°43.056 352.3 13.8 344.9 34.7
2003-01-08 09:38:07 51°37.467 2°42.961 353.2 13.9 345.6 35.1
2003-01-08 09:39:11 51°37.704 2°42.849 351.2 13.9 343.6 33.8
2003-01-08 09:40:11 51°37.932 2°42.774 357 13.7 349.2 34.8
2003-01-08 09:41:16 51°38.176 2°42.703 357.2 13.8 349.5 33.9
2003-01-08 09:42:15 51°38.397 2°42.633 356.7 13.7 348.5 34.7
2003-01-08 09:43:15 51°38.621 2°42.569 358.8 13.8 350 32.8
2003-01-08 09:44:21 51°38.872 2°42.505 357.5 13.8 349.8 31.1
2003-01-08 09:45:21 51°39.097 2°42.44 357.5 13.7 349.2 30.5
2003-01-08 09:46:21 51°39.321 2°42.374 358.8 13.7 350.6 27.1
2003-01-08 09:47:21 51°39.546 2°42.323 359.8 13.7 352.1 28.9
2003-01-08 09:48:21 51°39.771 2°42.271 359.8 13.6 351.2 26.4
2003-01-08 09:49:21 51°39.996 2°42.218 0.3 13.8 351.4 27.2
2003-01-08 09:50:21 51°40.221 2°42.164 0.2 13.7 351.7 29.4
2003-01-08 09:51:19 51°40.438 2°42.11 358.2 13.6 349.5 29.6
2003-01-08 09:52:21 51°40.669 2°42.041 358 13.7 349.7 29.6
2003-01-08 09:53:21 51°40.893 2°41.979 358.8 13.6 350.4 28.3
2003-01-08 09:54:21 51°41.116 2°41.924 1.5 13.6 353.1 33.6
2003-01-08 09:55:21 51°41.34 2°41.891 4.8 13.3 356.6 30.1
2003-01-08 09:56:21 51°41.563 2°41.881 8.2 13.4 358.9 33.6
2003-01-08 09:57:21 51°41.787 2°41.871 7 13.4 358.3 34.2
2003-01-08 09:58:21 51°41.989 2°41.854 2.3 9.5 353.1 36.4
2003-01-08 09:59:21 51°42.101 2°41.827 10.3 5 354.6 36.7
2003-01-08 10:00:19 51°42.146 2°41.82 32.7 1.3 342.7 37.4
2003-01-08 10:01:21 51°42.159 2°41.809 44.5 0.7 323.7 37.9
2003-01-08 10:02:21 51°42.165 2°41.795 46.5 0.7 292.1 38.4
2003-01-08 10:03:21 51°42.168 2°41.771 42.3 0.9 275.9 37.8
2003-01-08 10:04:21 51°42.168 2°41.744 36.8 1.1 268.1 38.3
2003-01-08 10:05:21 51°42.167 2°41.713 25.7 1.3 262.5 36.5
2003-01-08 10:06:21 51°42.163 2°41.679 10.8 1.4 257.8 37.7
2003-01-08 10:07:21 51°42.158 2°41.643 1.8 1.4 257.9 36.3
2003-01-08 10:08:21 51°42.154 2°41.606 355.7 1.4 256.6 35.7
2003-01-08 10:09:21 51°42.149 2°41.569 357.3 1.4 259.6 33
2003-01-08 10:10:21 51°42.145 2°41.533 1.3 1.4 256 33.1
2003-01-08 10:11:21 51°42.151 2°41.499 13.7 1.5 323.4 31.1
2003-01-08 10:12:21 51°42.176 2°41.497 47.3 1.6 24.7 34.6
2003-01-08 10:13:21 51°42.191 2°41.65 102.3 9.6 101.4 37.8
2003-01-08 10:14:20 51°42.043 2°41.835 153.5 12.7 156.1 35.7
2003-01-08 10:15:21 51°41.85 2°41.996 150.3 12.9 152 36.4
2003-01-08 10:16:21 51°41.659 2°42.151 153.2 12.9 155.1 33.2
2003-01-08 10:17:21 51°41.464 2°42.297 153 12.9 155.1 34.8
2003-01-08 10:18:21 51°41.27 2°42.446 152.5 13 154.6 31.3
2003-01-08 10:19:21 51°41.077 2°42.596 152.2 12.8 154.3 26.1
2003-01-08 10:20:21 51°40.884 2°42.744 152.2 12.8 154.2 32.1
2003-01-08 10:21:21 51°40.69 2°42.891 152.3 12.8 154.6 32.9
2003-01-08 10:22:21 51°40.496 2°43.034 153 12.9 154.9 31.3
2003-01-08 10:23:21 51°40.301 2°43.18 152.3 13 154.8 32.3
2003-01-08 10:24:21 51°40.106 2°43.33 152.7 13 154.6 31.6
2003-01-08 10:25:21 51°39.909 2°43.475 153.5 13 155.2 34
2003-01-08 10:26:21 51°39.711 2°43.624 152.5 13 154.5 35
2003-01-08 10:27:21 51°39.515 2°43.775 152.2 13.1 154.6 34.5
2003-01-08 10:28:21 51°39.318 2°43.927 152.8 13.1 154.3 35
2003-01-08 10:29:21 51°39.119 2°44.072 153 13.2 155.3 35.3
2003-01-08 10:30:21 51°38.921 2°44.221 152.7 13.1 154.9 33.9
2003-01-08 10:31:20 51°38.726 2°44.367 152.8 13.1 154.9 32.3
2003-01-08 10:32:21 51°38.525 2°44.514 154.2 13 156.3 33.5
2003-01-08 10:33:21 51°38.326 2°44.653 153 13.1 155.9 31.6
2003-01-08 10:34:21 51°38.127 2°44.797 153.2 13.1 155.9 31.8
2003-01-08 10:35:21 51°37.927 2°44.942 151.7 13.1 154.9 28.4
2003-01-08 10:36:21 51°37.726 2°45.085 152.2 13.1 155.8 34.3
2003-01-08 10:37:21 51°37.529 2°45.227 153.3 13 156.2 34.8
2003-01-08 10:38:21 51°37.328 2°45.37 151.8 13 155 34.4
2003-01-08 10:39:21 51°37.131 2°45.515 153.2 13.1 156 33.7
2003-01-08 10:40:21 51°36.931 2°45.657 152.7 13.2 155.8 31.6
2003-01-08 10:41:21 51°36.735 2°45.801 152.2 13 154.7 27.6
2003-01-08 10:42:21 51°36.539 2°45.946 152.7 13 155.8 27.4
2003-01-08 10:43:21 51°36.343 2°46.088 153.2 12.9 156.1 24.5
2003-01-08 10:44:21 51°36.148 2°46.229 154.2 12.8 157.1 20.6
2003-01-08 10:45:21 51°35.95 2°46.358 153 12.8 157.2 17.4
2003-01-08 10:46:21 51°35.756 2°46.502 147.7 12.9 151.9 19.4
2003-01-08 10:47:21 51°35.572 2°46.681 143.8 12.9 148.4 30.2
2003-01-08 10:48:21 51°35.391 2°46.863 145 12.9 149 32.2
2003-01-08 10:49:21 51°35.207 2°47.041 145.2 12.9 148.7 32.4
2003-01-08 10:50:21 51°35.063 2°47.182 140.3 7.4 149.4 33.8
2003-01-08 10:51:21 51°34.985 2°47.253 134.7 4.4 154 33.8
2003-01-08 10:52:21 51°34.925 2°47.3 129.2 3.8 151.2 34.9
2003-01-08 10:53:21 51°34.871 2°47.356 123.7 3.9 144 31.9
2003-01-08 10:54:21 51°34.828 2°47.392 120.8 1.7 178 33.5
2003-01-08 10:55:21 51°34.805 2°47.371 120 1.7 216.3 33
2003-01-08 10:56:21 51°34.782 2°47.339 129 1.9 222.5 31.7
2003-01-08 10:57:21 51°34.756 2°47.305 141.8 2.1 216.5 28.4
2003-01-08 10:58:21 51°34.727 2°47.272 153.8 2.3 213.7 29.9
2003-01-08 10:59:21 51°34.684 2°47.24 170.8 2.9 203.6 31.1
2003-01-08 11:00:20 51°34.639 2°47.229 129.7 2.7 170.5 26.4
2003-01-08 11:01:21 51°34.609 2°47.25 91.5 1.3 150.1 28.5
2003-01-08 11:02:21 51°34.593 2°47.262 80.8 0.8 145.3 28.6
2003-01-08 11:03:21 51°34.589 2°47.278 68.5 0.7 82.2 30.2
2003-01-08 11:04:21 51°34.599 2°47.312 70 3.1 72.3 27.2
2003-01-08 11:05:21 51°34.531 2°47.463 148 11.1 152.8 29.9
2003-01-08 11:06:21 51°34.321 2°47.539 165.5 13.8 170.1 30.2
2003-01-08 11:07:21 51°34.08 2°47.583 168.2 14.6 172.3 24.9
2003-01-08 11:08:21 51°33.834 2°47.592 180.5 15 183.7 30.5
2003-01-08 11:09:21 51°33.584 2°47.563 182.2 15.1 185.6 30.9
2003-01-08 11:10:21 51°33.335 2°47.524 183.3 15.1 186.1 31.9
2003-01-08 11:11:21 51°33.085 2°47.483 182.3 15 185.9 29.2
2003-01-08 11:12:21 51°32.837 2°47.449 180.5 15.1 183.8 29.3
2003-01-08 11:13:21 51°32.589 2°47.418 182 15.1 184.7 30.3
2003-01-08 11:14:21 51°32.339 2°47.378 182.7 15.1 185.9 29.7
2003-01-08 11:15:21 51°32.089 2°47.346 180.8 15 184.2 29.7
2003-01-08 11:16:21 51°31.84 2°47.317 181.5 14.9 184.5 28
2003-01-08 11:17:21 51°31.593 2°47.277 182.7 14.9 186.1 28.3
2003-01-08 11:18:21 51°31.346 2°47.25 177.2 14.8 180.8 27.9
2003-01-08 11:19:21 51°31.099 2°47.258 175.3 14.7 179.5 26.8
2003-01-08 11:20:21 51°30.857 2°47.273 173.2 14.5 177.1 27.5
2003-01-08 11:21:21 51°30.618 2°47.306 167 14.3 171.4 24.9
2003-01-08 11:22:21 51°30.387 2°47.366 166.2 13.1 171.2 22.7
2003-01-08 11:23:21 51°30.288 2°47.461 96.2 3.8 114.4 22.2
2003-01-08 11:24:21 51°30.308 2°47.511 45.5 2.6 31.7 22
2003-01-08 11:25:21 51°30.342 2°47.56 60.7 2.9 56.5 24.7
2003-01-08 11:26:21 51°30.354 2°47.647 81.8 4 85.9 26.7
2003-01-08 11:27:21 51°30.373 2°47.759 63 4.6 61.6 24.2
2003-01-08 11:28:21 51°30.402 2°47.847 70 2.6 72.7 25.3
2003-01-08 11:29:21 51°30.394 2°47.846 93.8 1 224.1 25.9
2003-01-08 11:30:21 51°30.378 2°47.821 103.3 1.5 222.9 26.7
2003-01-08 11:31:21 51°30.357 2°47.789 111.7 1.9 222.8 24.6
2003-01-08 11:32:21 51°30.332 2°47.756 117.7 2 211.5 23.6
2003-01-08 11:33:21 51°30.304 2°47.747 90 1.3 175.2 26.1
2003-01-08 11:34:21 51°30.295 2°47.741 44.2 0.4 299.5 25.5
2003-01-08 11:35:21 51°30.363 2°47.838 65.7 8.1 61.3 26.3
2003-01-08 11:36:21 51°30.298 2°48.046 146.8 10.7 153.3 23.6
2003-01-08 11:37:21 51°30.1 2°48.057 175.2 12.4 179.7 24.2
2003-01-08 11:38:21 51°29.888 2°48.055 175.3 13.1 179.8 23.7
2003-01-08 11:39:21 51°29.662 2°48.051 176.5 13.7 181.5 21.7
2003-01-08 11:40:21 51°29.436 2°48.048 176.5 13.7 181.3 23.5
2003-01-08 11:41:21 51°29.209 2°48.057 173.3 14.2 177.5 25.4
2003-01-08 11:42:21 51°28.966 2°48.088 171.2 14.8 175.2 26.8
2003-01-08 11:43:21 51°28.72 2°48.119 172.5 14.7 175.9 30.2
2003-01-08 11:44:21 51°28.475 2°48.139 172.3 14.7 176.9 28.8
2003-01-08 11:45:21 51°28.232 2°48.16 172.5 14.6 177.2 30.2
2003-01-08 11:46:21 51°27.991 2°48.204 167.5 14.3 171.5 28.6
2003-01-08 11:47:21 51°27.751 2°48.254 168.7 14.5 172.9 24.8
2003-01-08 11:48:21 51°27.51 2°48.309 167.7 14.6 171.8 26
2003-01-08 11:49:21 51°27.271 2°48.365 167.8 14.4 171.9 25.5
2003-01-08 11:50:21 51°27.034 2°48.421 168.2 14.4 172.7 23.8
2003-01-08 11:51:21 51°26.796 2°48.472 168 14.4 172.3 22.1
2003-01-08 11:52:21 51°26.555 2°48.521 167.7 14.7 171.6 20.8
2003-01-08 11:53:21 51°26.326 2°48.578 165.7 11.8 170.5 20.3
2003-01-08 11:54:21 51°26.167 2°48.628 154.8 8.6 162.8 22.5
2003-01-08 11:55:21 51°26.058 2°48.676 156.3 5.7 173.6 21.7
2003-01-08 11:56:21 51°25.976 2°48.61 228.7 6.4 229.6 23.3
2003-01-08 11:57:21 51°25.968 2°48.454 320.3 5.5 294.5 23
2003-01-08 11:58:21 51°26.02 2°48.414 44 2.6 26.6 23
2003-01-08 11:59:21 51°26.042 2°48.485 68.8 2.9 72 22.9
2003-01-08 12:00:21 51°26.047 2°48.516 67.7 0.7 79.7 23
2003-01-08 12:01:21 51°26.048 2°48.539 69.2 0.8 77.9 22.9
2003-01-08 12:02:21 51°26.05 2°48.558 66.7 0.5 81.7 22.6
2003-01-08 12:03:21 51°26.053 2°48.56 56 0.3 338.2 22.9
2003-01-08 12:04:21 51°26.056 2°48.554 55.7 0.3 302.8 23.2
2003-01-08 12:05:21 51°26.057 2°48.547 53.7 0.4 282.6 23.1
2003-01-08 12:06:21 51°26.056 2°48.534 52.5 0.5 261.3 22.9
2003-01-08 12:07:21 51°26.064 2°48.551 62.8 1.2 75.6 23.1
2003-01-08 12:08:21 51°26.07 2°48.586 63.2 1.6 71.4 21.7
2003-01-08 12:09:21 51°26.094 2°48.65 58.7 3.4 55.3 23.2
2003-01-08 12:10:21 51°26.128 2°48.726 56.7 3.5 52.9 23.5
2003-01-08 12:11:21 51°26.157 2°48.857 92.8 8.5 94.6 22.5
2003-01-08 12:12:21 51°26.001 2°48.99 166.2 12.9 171.8 23.1
2003-01-08 12:13:21 51°25.773 2°49.049 164.7 14.2 170.4 23.6
2003-01-08 12:14:21 51°25.542 2°49.115 165 14.1 170.2 23.1
2003-01-08 12:15:21 51°25.31 2°49.175 164.8 14.1 170.1 22.9
2003-01-08 12:16:21 51°25.078 2°49.234 165.8 14.1 171.1 21.5
2003-01-08 12:17:21 51°24.847 2°49.288 166.5 14 171.5 21.4
2003-01-08 12:18:21 51°24.612 2°49.344 166.2 14.3 171.5 21.5
2003-01-08 12:19:21 51°24.377 2°49.404 166.7 14.2 170.5 21.7
2003-01-08 12:20:21 51°24.141 2°49.453 171.2 14.3 175.3 22.4
2003-01-08 12:21:21 51°23.901 2°49.472 174.3 14.5 178.5 21.8
2003-01-08 12:22:21 51°23.656 2°49.465 177.8 14.8 182.2 22
2003-01-08 12:23:21 51°23.41 2°49.456 177.5 14.8 181.4 19.9
2003-01-08 12:24:21 51°23.161 2°49.455 176 14.7 178.3 18.2
2003-01-08 12:25:21 51°22.915 2°49.466 178.2 14.7 179.5 16.4
2003-01-08 12:26:21 51°22.668 2°49.477 176.7 14.9 177.7 14.6
2003-01-08 12:27:21 51°22.426 2°49.491 177.3 13 178.5 21.2
2003-01-08 12:28:21 51°22.293 2°49.556 130.3 6.1 140.8 22.8
2003-01-08 12:29:21 51°22.254 2°49.661 84 3.5 94.2 22.8
2003-01-08 12:30:21 51°22.274 2°49.715 55.3 1.7 49.1 22.2
2003-01-08 12:31:21 51°22.284 2°49.735 61 0.4 41.9 21.8
2003-01-08 12:32:21 51°22.286 2°49.734 59.7 0.4 261.7 21.7
2003-01-08 12:33:21 51°22.283 2°49.714 51.5 1.1 252.2 22.6
2003-01-08 12:34:21 51°22.277 2°49.682 35.5 1.4 253.5 22
2003-01-08 12:35:21 51°22.269 2°49.644 16.3 1.5 247.1 22.7
2003-01-08 12:36:21 51°22.306 2°49.596 341.7 5.3 325.7 21.9
2003-01-08 12:37:21 51°22.361 2°49.438 288.3 7.8 277.8 20
2003-01-08 12:38:21 51°22.301 2°49.22 222.5 11 221.3 23.3
2003-01-08 12:39:21 51°22.102 2°49.157 182 13.3 182.7 23.1
2003-01-08 12:40:21 51°21.875 2°49.201 163.3 13.9 166.1 22.9
2003-01-08 12:41:21 51°21.652 2°49.301 160.3 13.9 164 22.3
2003-01-08 12:42:21 51°21.431 2°49.402 160 13.7 164.8 21.4
2003-01-08 12:43:21 51°21.212 2°49.496 160.2 13.6 165.4 21.8
2003-01-08 12:44:21 51°20.992 2°49.59 161 13.7 165.5 22.5
2003-01-08 12:45:21 51°20.771 2°49.677 161.3 13.6 165.9 22.9
2003-01-08 12:46:21 51°20.551 2°49.775 158.2 13.7 162.5 22.2
2003-01-08 12:47:21 51°20.334 2°49.893 157.5 13.7 162 19.8
2003-01-08 12:48:21 51°20.116 2°50.007 156.2 13.8 160.3 17
2003-01-08 12:49:21 51°19.9 2°50.131 157.5 13.8 160.3 14.8
2003-01-08 12:50:21 51°19.681 2°50.252 158 13.9 161.5 13.2
2003-01-08 12:51:21 51°19.463 2°50.376 159.5 14 161.8 11.6
2003-01-08 12:52:21 51°19.244 2°50.505 158.2 14.2 160.5 13.1
2003-01-08 12:53:21 51°19.02 2°50.631 163.2 14.3 163.7 14.4
2003-01-08 12:54:21 51°18.788 2°50.724 166.2 14.6 167.3 14.6
2003-01-08 12:55:21 51°18.581 2°50.806 159.8 10.6 163.6 14.4
2003-01-08 12:56:21 51°18.462 2°50.899 120.3 5.2 133.6 14.1
2003-01-08 12:57:21 51°18.437 2°50.97 79.2 2.1 101.2 14
2003-01-08 12:58:21 51°18.442 2°51.004 50.2 1.1 53.9 14
2003-01-08 12:59:21 51°18.453 2°51.013 38.5 0.7 9 14
2003-01-08 13:00:21 51°18.464 2°51.017 41.7 0.7 13.7 14.1
2003-01-08 13:01:21 51°18.473 2°51.018 39.7 0.5 352.4 14.2
2003-01-08 13:02:21 51°18.479 2°51.016 43.7 0.4 2.7 14.2
2003-01-08 13:03:21 51°18.501 2°51.03 29.2 3.5 18.5 14.2
2003-01-08 13:04:21 51°18.587 2°50.991 332.7 6.8 320.3 14.3
2003-01-08 13:05:21 51°18.61 2°50.765 257.5 11.6 250.7 14.6
2003-01-08 13:06:21 51°18.433 2°50.655 163 12.9 165.8 14.4
2003-01-08 13:07:21 51°18.256 2°50.857 136.2 13.4 138.2 13.5
2003-01-08 13:08:21 51°18.095 2°51.1 133.7 13.4 135.7 12.5
2003-01-08 13:09:21 51°17.93 2°51.346 137.7 13.8 138.5 11
2003-01-08 13:10:29 51°17.727 2°51.616 138.5 14.1 138.7 10.3
2003-01-08 13:11:29 51°17.548 2°51.857 139.8 14.1 139.9 10.7
2003-01-08 13:12:29 51°17.368 2°52.098 140.8 14.3 140.9 10.7
2003-01-08 13:13:29 51°17.193 2°52.344 137.2 14.1 137 10.5
2003-01-08 13:14:29 51°17.023 2°52.597 137.7 14 137.7 10.3
2003-01-08 13:15:29 51°16.853 2°52.852 136 13.9 135.9 9.2
2003-01-08 13:16:29 51°16.683 2°53.113 135.7 14.2 134.8 11.9
2003-01-08 13:17:29 51°16.52 2°53.378 136.7 14 135.4 12.6
2003-01-08 13:18:29 51°16.353 2°53.638 135.2 13.9 134 12.5
2003-01-08 13:19:29 51°16.214 2°53.913 115.5 11.2 117.4 12.2
2003-01-08 13:20:29 51°16.216 2°54.096 70.2 5.4 69.8 12.4
2003-01-08 13:21:29 51°16.243 2°54.208 77.3 4 76 12.3
2003-01-08 13:22:29 51°16.242 2°54.282 95.3 1.6 110.4 12.3
2003-01-08 13:23:29 51°16.225 2°54.288 133 1.3 182 12.3
2003-01-08 13:24:29 51°16.2 2°54.285 136.3 1.6 182.3 12.3
2003-01-08 13:25:29 51°16.176 2°54.287 122.8 1.3 175.1 12.2
2003-01-08 13:26:29 51°16.156 2°54.292 111.3 1.1 168.6 12.2
2003-01-08 13:27:29 51°16.139 2°54.301 97.8 1.1 146.8 12.2
2003-01-08 13:28:29 51°16.131 2°54.321 70.5 0.8 95.3 12.2
2003-01-08 13:29:29 51°16.141 2°54.33 25.2 1.1 359.6 12.2
2003-01-08 13:30:29 51°16.169 2°54.316 4.7 2.2 339.6 12.3
2003-01-08 13:31:29 51°16.206 2°54.297 5.8 2.5 344.2 12.4
2003-01-08 13:32:29 51°16.248 2°54.276 356.3 2.8 336.5 12.5
2003-01-08 13:33:29 51°16.29 2°54.235 341.5 3.1 325 12.6
2003-01-08 13:34:29 51°16.336 2°54.163 312 5.3 304.5 12.7
2003-01-08 13:35:29 51°16.335 2°53.981 249.5 8.9 245.6 12.8
2003-01-08 13:36:29 51°16.188 2°53.867 184.5 11.5 183.3 12.7
2003-01-08 13:37:27 51°15.998 2°53.933 161.5 12.4 161.3 12.3
2003-01-08 13:38:29 51°15.802 2°54.062 157.2 12.4 157.3 11.7
2003-01-08 13:39:29 51°15.612 2°54.187 156.8 12.3 157.3 11
2003-01-08 13:40:29 51°15.421 2°54.312 158.3 12.5 158.3 10.3
2003-01-08 13:41:29 51°15.23 2°54.441 158.5 12.5 157.6 9.6
2003-01-08 13:42:30 51°15.036 2°54.561 159.3 12.3 159 9.3
2003-01-08 13:43:29 51°14.845 2°54.662 167.3 12.3 166.2 10
2003-01-08 13:44:30 51°14.65 2°54.776 158.5 12.3 156.7 10.3
2003-01-08 13:45:29 51°14.478 2°54.927 149.7 11.7 147.4 10.7
2003-01-08 13:46:29 51°14.333 2°55.135 134.2 11.5 131.9 10.8
2003-01-08 13:47:30 51°14.227 2°55.307 141.8 7.3 138.9 -999
2003-01-08 13:48:29 51°14.142 2°55.397 155 5.9 152.9 -999
2003-01-08 13:49:29 51°14.046 2°55.476 154.8 6.8 152.2 11
2003-01-08 13:50:29 51°13.943 2°55.555 158 6.9 155.1 10.8
2003-01-08 13:51:29 51°13.839 2°55.632 156.2 6.9 153.6 11
2003-01-08 13:52:29 51°13.752 2°55.728 142 5.9 140.1 10.3
2003-01-08 13:53:29 51°13.691 2°55.833 130.7 5 128.3 -999
2003-01-08 13:54:29 51°13.65 2°55.924 125.8 3.7 123.4 11.1
2003-01-08 13:55:29 51°13.62 2°55.992 125.8 2.8 124.2 11.5
2003-01-08 13:56:29 51°13.601 2°56.05 108.8 2.2 108.1 11.6
2003-01-08 13:57:29 51°13.597 2°56.088 107.5 0.5 89.2 8.1
2003-01-08 13:58:30 51°13.596 2°56.098 119 0.4 117.8 7.6
2003-01-08 13:59:29 51°13.594 2°56.102 121.8   152.2 7.7
2003-01-08 14:00:29 51°13.595 2°56.102 128.8   29.3 7.6